createdAt,value
2022-12-11T00:03:51.260Z,0
2022-12-11T00:09:10.202Z,0
2022-12-11T00:14:29.452Z,0
2022-12-11T00:19:49.065Z,0
2022-12-11T00:25:08.222Z,0
2022-12-11T00:30:27.639Z,0
2022-12-11T00:35:46.741Z,0
2022-12-11T00:41:06.231Z,0
2022-12-11T00:46:25.296Z,0
2022-12-11T00:51:45.017Z,0
2022-12-11T00:57:04.673Z,0
2022-12-11T01:02:23.691Z,0
2022-12-11T01:07:42.952Z,0
2022-12-11T01:13:02.114Z,0
2022-12-11T01:18:21.261Z,0
2022-12-11T01:23:40.539Z,0
2022-12-11T01:28:59.670Z,0
2022-12-11T01:34:19.303Z,0
2022-12-11T01:39:39.016Z,0
2022-12-11T01:44:58.026Z,0
2022-12-11T01:50:16.975Z,0
2022-12-11T01:55:35.933Z,0
2022-12-11T02:00:55.307Z,0
2022-12-11T02:06:14.323Z,0
2022-12-11T02:11:33.376Z,0
2022-12-11T02:16:51.987Z,0
2022-12-11T02:22:11.620Z,0
2022-12-11T02:27:30.857Z,0
2022-12-11T02:32:50.560Z,0
2022-12-11T02:38:09.759Z,0
2022-12-11T02:43:28.715Z,0
2022-12-11T02:48:48.407Z,0
2022-12-11T02:54:08.050Z,0
2022-12-11T02:59:27.165Z,0
2022-12-11T03:04:46.273Z,0
2022-12-11T03:10:05.812Z,0
2022-12-11T03:15:25.542Z,0
2022-12-11T03:20:45.353Z,0
2022-12-11T03:26:04.566Z,0
2022-12-11T03:31:24.375Z,0
2022-12-11T03:36:43.837Z,0
2022-12-11T03:42:03.310Z,0
2022-12-11T03:47:22.291Z,0
2022-12-11T03:52:45.693Z,0
2022-12-11T03:58:01.056Z,0
2022-12-11T04:03:20.092Z,0
2022-12-11T04:08:39.840Z,0
2022-12-11T04:13:59.113Z,0
2022-12-11T04:19:18.911Z,0
2022-12-11T04:24:38.025Z,0
2022-12-11T04:29:57.524Z,0
2022-12-11T04:35:16.522Z,0
2022-12-11T04:40:36.142Z,0
2022-12-11T04:45:55.394Z,0
2022-12-11T04:51:14.608Z,0
2022-12-11T04:56:34.214Z,0
2022-12-11T05:01:53.827Z,0
2022-12-11T05:07:13.344Z,0
2022-12-11T05:12:32.727Z,0
2022-12-11T05:17:51.715Z,0
2022-12-11T05:23:10.966Z,0
2022-12-11T05:28:30.025Z,0
2022-12-11T05:33:49.698Z,0
2022-12-11T05:39:08.688Z,0
2022-12-11T05:44:28.122Z,0
2022-12-11T05:49:47.888Z,0
2022-12-11T05:55:07.585Z,0
2022-12-11T06:00:28.464Z,0
2022-12-11T06:05:45.516Z,0
2022-12-11T06:11:04.459Z,0
2022-12-11T06:16:23.694Z,0
2022-12-11T06:21:43.780Z,0
2022-12-11T06:27:02.658Z,0
2022-12-11T06:32:21.518Z,0
2022-12-11T06:37:40.998Z,0
2022-12-11T06:43:00.530Z,0
2022-12-11T06:48:19.984Z,0
2022-12-11T06:53:39.050Z,0
2022-12-11T06:59:01.690Z,0
2022-12-11T07:04:18.389Z,3
2022-12-11T07:09:37.457Z,6
2022-12-11T07:14:56.586Z,9
2022-12-11T07:21:30.787Z,13
2022-12-11T07:25:37.150Z,17.56
2022-12-11T07:30:56.263Z,17.92
2022-12-11T07:36:14.299Z,19.93
2022-12-11T07:41:33.812Z,25.49
2022-12-11T07:46:52.757Z,24.96
2022-12-11T07:52:12.105Z,23.47
2022-12-11T07:57:31.735Z,25.03
2022-12-11T08:02:50.195Z,24.35
2022-12-11T08:08:09.163Z,23.37
2022-12-11T08:13:28.652Z,26.8
2022-12-11T08:18:47.900Z,21.11
2022-12-11T08:24:07.467Z,24.23
2022-12-11T08:29:26.894Z,24.28
2022-12-11T08:34:46.501Z,23.83
2022-12-11T08:40:06.312Z,26.25
2022-12-11T08:45:25.202Z,26.41
2022-12-11T08:50:44.033Z,24.52
2022-12-11T08:56:03.323Z,25.75
2022-12-11T09:01:22.879Z,24.97
2022-12-11T09:06:41.879Z,27.53
2022-12-11T09:12:01.595Z,26.3
2022-12-11T09:17:21.380Z,26.16
2022-12-11T09:22:40.307Z,24.16
2022-12-11T09:27:59.357Z,26.06
2022-12-11T09:33:18.257Z,25.64
2022-12-11T09:38:37.997Z,28.45
2022-12-11T09:43:58.489Z,30.39
2022-12-11T09:49:18.249Z,28.36
2022-12-11T09:54:37.364Z,27.67
2022-12-11T09:59:59.727Z,26.53
2022-12-11T10:05:15.945Z,29.53
2022-12-11T10:10:35.012Z,30.88
2022-12-11T10:15:53.942Z,30.66
2022-12-11T10:21:13.585Z,26.3
2022-12-11T10:26:32.484Z,27.08
2022-12-11T10:31:51.759Z,32.96
2022-12-11T10:37:11.312Z,31.18
2022-12-11T10:42:30.607Z,25.41
2022-12-11T10:47:49.947Z,26.94
2022-12-11T10:53:09.792Z,25.85
2022-12-11T10:58:29.470Z,31.63
2022-12-11T11:03:48.521Z,29.18
2022-12-11T11:09:08.298Z,32.09
2022-12-11T11:14:27.122Z,29.27
2022-12-11T11:19:46.141Z,28.6
2022-12-11T11:25:05.762Z,25.36
2022-12-11T11:30:25.268Z,28.91
2022-12-11T11:35:45.827Z,27.38
2022-12-11T11:41:06.686Z,27.05
2022-12-11T11:46:23.290Z,25.05
2022-12-11T11:51:42.458Z,28.94
2022-12-11T11:57:01.639Z,28.27
2022-12-11T12:02:21.018Z,29.05
2022-12-11T12:07:40.705Z,27.94
2022-12-11T12:12:59.619Z,26.6
2022-12-11T12:18:18.884Z,23.46
2022-12-11T12:23:37.910Z,27.77
2022-12-11T12:28:57.257Z,24.91
2022-12-11T12:34:16.666Z,26.82
2022-12-11T12:39:35.968Z,25.49
2022-12-11T12:44:54.972Z,28.82
2022-12-11T12:50:13.849Z,23.03
2022-12-11T12:55:32.940Z,25.13
2022-12-11T13:00:52.013Z,26.91
2022-12-11T13:06:11.098Z,25.8
2022-12-11T13:11:30.397Z,24.68
2022-12-11T13:16:50.550Z,25.23
2022-12-11T13:22:10.289Z,22.66
2022-12-11T13:27:29.362Z,21.98
2022-12-11T13:32:48.330Z,21.41
2022-12-11T13:38:07.915Z,18.73
2022-12-11T13:43:27.594Z,19.95
2022-12-11T13:48:46.790Z,20.4
2022-12-11T13:54:06.433Z,17.08
2022-12-11T13:59:25.535Z,20.1
2022-12-11T14:05:11.199Z,25.29
2022-12-11T14:10:30.132Z,26.68
2022-12-11T14:15:49.269Z,24.91
2022-12-11T14:21:08.848Z,25.78
2022-12-11T14:26:28.386Z,24.71
2022-12-11T14:31:47.757Z,26.16
2022-12-11T14:37:07.078Z,21.15
2022-12-11T14:42:26.252Z,21.78
2022-12-11T14:47:45.828Z,18.94
2022-12-11T14:53:05.205Z,19.01
2022-12-11T14:58:24.253Z,17.51
2022-12-11T15:03:43.087Z,20.04
2022-12-11T15:09:02.887Z,18.24
2022-12-11T15:14:21.516Z,18.56
2022-12-11T15:19:40.783Z,14.78
2022-12-11T15:24:59.664Z,14
2022-12-11T15:30:19.178Z,7
2022-12-11T15:35:38.818Z,0
2022-12-11T15:40:59.017Z,0
2022-12-11T15:46:17.883Z,0
2022-12-11T15:51:41.225Z,0
2022-12-11T15:56:56.538Z,0
2022-12-11T16:02:15.679Z,0
2022-12-11T16:07:34.579Z,0
2022-12-11T16:12:54.335Z,0
2022-12-11T16:18:13.693Z,0
2022-12-11T16:23:33.164Z,0
2022-12-11T16:28:52.262Z,0
2022-12-11T16:34:11.165Z,0
2022-12-11T16:39:30.514Z,0
2022-12-11T16:44:50.280Z,0
2022-12-11T16:50:09.228Z,0
2022-12-11T16:55:28.643Z,0
2022-12-11T17:00:48.276Z,0
2022-12-11T17:06:07.481Z,0
2022-12-11T17:11:26.386Z,0
2022-12-11T17:16:45.921Z,0
2022-12-11T17:22:04.958Z,0
2022-12-11T17:27:24.300Z,0
2022-12-11T17:32:43.723Z,0
2022-12-11T17:38:03.272Z,0
2022-12-11T17:43:22.603Z,0
2022-12-11T17:48:41.934Z,0
2022-12-11T17:54:00.806Z,0
2022-12-11T17:59:20.169Z,0
2022-12-11T18:05:54.340Z,0
2022-12-11T18:10:00.017Z,0
2022-12-11T18:15:18.358Z,0
2022-12-11T18:20:37.599Z,0
2022-12-11T18:25:56.994Z,0
2022-12-11T18:31:16.144Z,0
2022-12-11T18:36:35.774Z,0
2022-12-11T18:42:24.209Z,0
2022-12-11T18:47:14.811Z,0
2022-12-11T18:52:34.537Z,0
2022-12-11T18:57:54.077Z,0
2022-12-11T19:03:13.241Z,0
2022-12-11T19:08:32.245Z,0
2022-12-11T19:13:51.714Z,0
2022-12-11T19:19:11.573Z,0
2022-12-11T19:24:30.801Z,0
2022-12-11T19:29:49.945Z,0
2022-12-11T19:35:09.820Z,0
2022-12-11T19:40:28.631Z,0
2022-12-11T19:45:47.956Z,0
2022-12-11T19:51:07.475Z,0
2022-12-11T19:56:26.580Z,0
2022-12-11T20:01:45.790Z,0
2022-12-11T20:07:05.389Z,0
2022-12-11T20:12:24.381Z,0
2022-12-11T20:17:43.685Z,0
2022-12-11T20:23:03.196Z,0
2022-12-11T20:28:22.366Z,0
2022-12-11T20:33:41.751Z,0
2022-12-11T20:39:00.223Z,0
2022-12-11T20:44:19.159Z,0
2022-12-11T20:49:38.302Z,0
2022-12-11T20:54:57.903Z,0
2022-12-11T21:00:16.871Z,0
2022-12-11T21:05:36.130Z,0
2022-12-11T21:10:55.769Z,0
2022-12-11T21:16:14.984Z,0
2022-12-11T21:21:34.547Z,0
2022-12-11T21:26:53.798Z,0
2022-12-11T21:32:13.467Z,0
2022-12-11T21:37:33.798Z,0
2022-12-11T21:42:53.378Z,0
2022-12-11T21:48:11.728Z,0
2022-12-11T21:53:31.188Z,0
2022-12-11T21:58:50.176Z,0
2022-12-11T22:04:10.270Z,0
2022-12-11T22:09:29.171Z,0
2022-12-11T22:16:03.271Z,0
2022-12-11T22:20:08.972Z,0
2022-12-11T22:25:28.031Z,0
2022-12-11T22:30:48.103Z,0
2022-12-11T22:36:07.071Z,0
2022-12-11T22:41:26.460Z,0
2022-12-11T22:46:49.851Z,0
2022-12-11T22:52:04.417Z,0
2022-12-11T22:57:23.282Z,0
2022-12-11T23:02:42.063Z,0
2022-12-11T23:08:01.681Z,0
2022-12-11T23:13:21.362Z,0
2022-12-11T23:18:40.784Z,0
2022-12-11T23:23:59.771Z,0
2022-12-11T23:29:19.059Z,0
2022-12-11T23:34:37.906Z,0
2022-12-11T23:39:57.351Z,0
2022-12-11T23:45:17.354Z,0
2022-12-11T23:50:36.408Z,0
2022-12-11T23:55:55.323Z,0
